createdAt,value
2023-02-25T00:01:40.147Z,0.69
2023-02-25T00:05:40.041Z,0.76
2023-02-25T00:09:40.137Z,0.78
2023-02-25T00:13:40.172Z,0.84
2023-02-25T00:17:40.246Z,0.82
2023-02-25T00:21:40.257Z,0.84
2023-02-25T00:25:40.329Z,0.89
2023-02-25T00:29:40.333Z,0.89
2023-02-25T00:33:40.422Z,0.79
2023-02-25T00:37:40.596Z,0.79
2023-02-25T00:41:40.698Z,0.54
2023-02-25T00:45:40.852Z,0.55
2023-02-25T00:49:40.910Z,0.58
2023-02-25T00:53:40.937Z,0.62
2023-02-25T00:57:41.086Z,0.60
2023-02-25T01:01:41.288Z,0.68
2023-02-25T01:05:41.368Z,0.71
2023-02-25T01:09:41.476Z,0.74
2023-02-25T01:13:41.723Z,0.87
2023-02-25T01:17:41.800Z,0.77
2023-02-25T01:21:41.974Z,0.75
2023-02-25T01:25:42.103Z,0.79
2023-02-25T01:29:42.151Z,0.73
2023-02-25T01:33:42.189Z,0.77
2023-02-25T01:37:42.222Z,0.59
2023-02-25T01:41:42.323Z,0.55
2023-02-25T01:45:42.447Z,0.52
2023-02-25T01:49:42.617Z,0.58
2023-02-25T01:53:42.647Z,0.64
2023-02-25T01:57:42.797Z,0.74
2023-02-25T02:01:42.980Z,0.67
2023-02-25T02:05:43.177Z,0.67
2023-02-25T02:09:43.238Z,0.57
2023-02-25T02:13:43.451Z,0.53
2023-02-25T02:17:43.660Z,0.62
2023-02-25T02:21:43.846Z,0.53
2023-02-25T02:25:43.982Z,0.61
2023-02-25T02:29:44.082Z,0.71
2023-02-25T02:33:44.216Z,0.81
2023-02-25T02:37:44.335Z,0.96
2023-02-25T02:41:44.419Z,0.78
2023-02-25T02:45:44.575Z,0.85
2023-02-25T02:49:44.641Z,1.04
2023-02-25T02:53:44.756Z,1.00
2023-02-25T02:57:44.956Z,1.06
2023-02-25T03:01:45.017Z,1.13
2023-02-25T03:05:45.114Z,1.26
2023-02-25T03:09:45.142Z,1.70
2023-02-25T03:13:45.322Z,1.58
2023-02-25T03:17:45.513Z,1.71
2023-02-25T03:21:45.742Z,1.69
2023-02-25T03:25:45.913Z,1.85
2023-02-25T03:29:46.083Z,1.69
2023-02-25T03:33:46.282Z,1.81
2023-02-25T03:37:46.433Z,1.60
2023-02-25T03:41:46.638Z,1.56
2023-02-25T03:45:46.857Z,1.72
2023-02-25T03:49:46.984Z,1.73
2023-02-25T03:53:47.137Z,1.61
2023-02-25T03:57:47.354Z,1.66
2023-02-25T04:01:47.501Z,1.87
2023-02-25T04:05:47.637Z,1.67
2023-02-25T04:09:47.810Z,1.72
2023-02-25T04:13:47.942Z,1.69
2023-02-25T04:17:48.139Z,1.91
2023-02-25T04:21:48.273Z,1.71
2023-02-25T04:25:48.404Z,1.68
2023-02-25T04:29:48.589Z,1.67
2023-02-25T04:33:48.774Z,1.64
2023-02-25T04:37:48.949Z,1.58
2023-02-25T04:41:49.157Z,1.61
2023-02-25T04:45:49.284Z,1.64
2023-02-25T04:49:49.456Z,1.59
2023-02-25T04:53:49.607Z,1.76
2023-02-25T04:57:49.797Z,1.57
2023-02-25T05:01:50.025Z,1.48
2023-02-25T05:05:50.115Z,1.42
2023-02-25T05:09:50.320Z,1.42
2023-02-25T05:13:50.565Z,1.32
2023-02-25T05:17:50.506Z,1.31
2023-02-25T05:21:50.474Z,1.20
2023-02-25T05:25:50.435Z,1.18
2023-02-25T05:29:50.426Z,1.23
2023-02-25T05:33:50.361Z,1.21
2023-02-25T05:37:50.320Z,1.21
2023-02-25T05:41:50.292Z,1.11
2023-02-25T05:45:50.244Z,1.14
2023-02-25T05:49:50.194Z,1.08
2023-02-25T05:53:50.157Z,1.06
2023-02-25T05:57:50.104Z,1.08
2023-02-25T06:01:50.102Z,1.07
2023-02-25T06:05:50.073Z,1.07
2023-02-25T06:09:49.998Z,1.04
2023-02-25T06:13:50.028Z,1.05
2023-02-25T06:17:49.966Z,1.03
2023-02-25T06:21:49.885Z,1.04
2023-02-25T06:25:49.850Z,1.03
2023-02-25T06:29:49.827Z,0.94
2023-02-25T06:33:49.814Z,1.04
2023-02-25T06:37:49.776Z,1.07
2023-02-25T06:41:49.689Z,1.02
2023-02-25T06:45:49.754Z,0.98
2023-02-25T06:49:49.664Z,0.91
2023-02-25T06:53:49.656Z,0.89
2023-02-25T06:57:49.696Z,0.93
2023-02-25T07:01:49.806Z,0.90
2023-02-25T07:05:49.769Z,0.94
2023-02-25T07:09:49.829Z,0.87
2023-02-25T07:13:49.882Z,0.91
2023-02-25T07:17:49.912Z,0.87
2023-02-25T07:21:49.984Z,0.89
2023-02-25T07:25:50.043Z,0.91
2023-02-25T07:29:50.112Z,0.86
2023-02-25T07:33:50.196Z,0.87
2023-02-25T07:37:50.218Z,0.88
2023-02-25T07:41:50.277Z,0.83
2023-02-25T07:45:50.442Z,0.81
2023-02-25T07:49:50.440Z,0.78
2023-02-25T07:53:50.538Z,0.73
2023-02-25T07:57:50.628Z,0.76
2023-02-25T08:01:50.735Z,0.76
2023-02-25T08:05:50.802Z,0.82
2023-02-25T08:09:50.903Z,0.80
2023-02-25T08:13:51.039Z,0.81
2023-02-25T08:17:51.136Z,0.91
2023-02-25T08:21:51.247Z,0.85
2023-02-25T08:25:51.371Z,0.90
2023-02-25T08:29:51.456Z,0.90
2023-02-25T08:33:51.584Z,0.94
2023-02-25T08:37:51.686Z,0.93
2023-02-25T08:41:51.819Z,0.86
2023-02-25T08:45:51.923Z,0.88
2023-02-25T08:49:52.031Z,0.79
2023-02-25T08:53:52.157Z,0.80
2023-02-25T08:57:52.209Z,0.84
2023-02-25T09:01:52.368Z,0.90
2023-02-25T09:05:52.454Z,0.87
2023-02-25T09:09:52.597Z,0.93
2023-02-25T09:13:52.701Z,0.78
2023-02-25T09:17:52.841Z,0.71
2023-02-25T09:21:52.991Z,0.69
2023-02-25T09:25:53.093Z,0.74
2023-02-25T09:29:53.170Z,0.71
2023-02-25T09:33:53.273Z,0.75
2023-02-25T09:37:53.363Z,0.75
2023-02-25T09:41:55.688Z,0.73
2023-02-25T09:45:53.610Z,0.72
2023-02-25T09:49:53.667Z,0.72
2023-02-25T09:53:53.806Z,0.73
2023-02-25T09:57:53.924Z,0.74
2023-02-25T10:01:54.132Z,0.73
2023-02-25T10:05:54.160Z,0.79
2023-02-25T10:09:54.282Z,0.84
2023-02-25T10:13:54.350Z,0.88
2023-02-25T10:17:54.359Z,0.87
2023-02-25T10:21:54.388Z,1.01
2023-02-25T10:25:54.433Z,1.02
2023-02-25T10:29:54.428Z,0.89
2023-02-25T10:33:54.476Z,0.94
2023-02-25T10:37:54.614Z,0.90
2023-02-25T10:41:54.838Z,1.13
2023-02-25T10:45:54.785Z,1.02
2023-02-25T10:49:54.718Z,0.88
2023-02-25T10:53:54.704Z,0.85
2023-02-25T10:57:54.647Z,0.89
2023-02-25T11:01:54.677Z,0.84
2023-02-25T11:05:54.562Z,0.90
2023-02-25T11:09:54.569Z,1.08
2023-02-25T11:13:54.515Z,1.07
2023-02-25T11:17:54.476Z,1.03
2023-02-25T11:21:54.452Z,1.03
2023-02-25T11:25:54.415Z,0.92
2023-02-25T11:29:54.425Z,0.98
2023-02-25T11:33:54.364Z,0.95
2023-02-25T11:37:54.351Z,1.03
2023-02-25T11:41:54.314Z,0.96
2023-02-25T11:45:54.256Z,0.92
2023-02-25T11:49:54.218Z,1.01
2023-02-25T11:53:54.223Z,1.01
2023-02-25T11:57:54.146Z,1.07
2023-02-25T12:01:54.101Z,1.27
2023-02-25T12:05:54.134Z,1.19
2023-02-25T12:09:54.046Z,1.07
2023-02-25T12:13:54.041Z,1.13
2023-02-25T12:17:53.947Z,0.95
2023-02-25T12:21:53.930Z,1.03
2023-02-25T12:25:53.906Z,1.05
2023-02-25T12:29:53.912Z,1.00
2023-02-25T12:33:54.045Z,1.12
2023-02-25T12:37:54.090Z,1.16
2023-02-25T12:41:54.803Z,1.25
2023-02-25T12:45:54.275Z,1.17
2023-02-25T12:49:54.193Z,1.21
2023-02-25T12:53:54.219Z,1.47
2023-02-25T12:57:54.346Z,1.49
2023-02-25T13:01:54.527Z,2.09
2023-02-25T13:05:54.506Z,1.72
2023-02-25T13:09:54.473Z,1.39
2023-02-25T13:13:54.384Z,1.52
2023-02-25T13:17:54.328Z,1.50
2023-02-25T13:21:54.338Z,1.60
2023-02-25T13:25:54.295Z,1.67
2023-02-25T13:29:54.253Z,1.52
2023-02-25T13:33:54.206Z,1.66
2023-02-25T13:37:54.174Z,1.61
2023-02-25T13:41:54.124Z,1.71
2023-02-25T13:45:54.112Z,1.64
2023-02-25T13:49:54.214Z,1.55
2023-02-25T13:53:54.409Z,1.95
2023-02-25T13:57:54.347Z,1.73
2023-02-25T14:01:54.310Z,1.44
2023-02-25T14:05:54.279Z,1.52
2023-02-25T14:09:54.248Z,1.75
2023-02-25T14:13:54.215Z,2.24
2023-02-25T14:17:54.160Z,1.80
2023-02-25T14:21:54.146Z,1.50
2023-02-25T14:25:54.109Z,1.34
2023-02-25T14:29:54.082Z,1.50
2023-02-25T14:33:54.028Z,1.52
2023-02-25T14:37:53.985Z,1.35
2023-02-25T14:41:54.106Z,1.31
2023-02-25T14:45:54.278Z,1.27
2023-02-25T14:49:54.310Z,1.33
2023-02-25T14:53:54.456Z,1.30
2023-02-25T14:57:54.543Z,1.16
2023-02-25T15:01:54.663Z,1.22
2023-02-25T15:05:54.666Z,1.17
2023-02-25T15:09:54.721Z,1.23
2023-02-25T15:13:54.856Z,1.03
2023-02-25T15:17:54.867Z,0.96
2023-02-25T15:21:54.902Z,0.96
2023-02-25T15:25:54.959Z,0.87
2023-02-25T15:29:54.973Z,0.79
2023-02-25T15:33:56.048Z,0.91
2023-02-25T15:37:55.168Z,0.77
2023-02-25T15:41:55.193Z,0.66
2023-02-25T15:45:56.063Z,0.72
2023-02-25T15:49:55.407Z,0.76
2023-02-25T15:53:55.548Z,0.75
2023-02-25T15:57:55.624Z,0.82
2023-02-25T16:01:55.796Z,0.71
2023-02-25T16:05:55.931Z,0.80
2023-02-25T16:09:56.020Z,0.75
2023-02-25T16:13:56.137Z,0.73
2023-02-25T16:17:56.266Z,0.67
2023-02-25T16:21:56.390Z,0.66
2023-02-25T16:25:56.534Z,0.66
2023-02-25T16:29:56.692Z,0.73
2023-02-25T16:33:56.799Z,0.67
2023-02-25T16:37:56.926Z,0.63
2023-02-25T16:41:57.082Z,0.60
2023-02-25T16:45:57.279Z,0.64
2023-02-25T16:49:57.448Z,0.60
2023-02-25T16:53:57.599Z,0.60
2023-02-25T16:57:57.795Z,0.59
2023-02-25T17:01:58.032Z,0.54
2023-02-25T17:05:58.274Z,0.58
2023-02-25T17:09:58.447Z,0.55
2023-02-25T17:13:58.700Z,0.54
2023-02-25T17:17:58.877Z,0.51
2023-02-25T17:21:59.075Z,0.56
2023-02-25T17:25:59.295Z,0.56
2023-02-25T17:29:59.532Z,0.68
2023-02-25T17:33:59.488Z,0.71
2023-02-25T17:37:59.457Z,0.66
2023-02-25T17:41:59.419Z,0.64
2023-02-25T17:45:59.393Z,0.63
2023-02-25T17:49:59.357Z,0.68
2023-02-25T17:53:59.309Z,0.61
2023-02-25T17:57:59.274Z,0.52
2023-02-25T18:01:59.234Z,0.59
2023-02-25T18:05:59.206Z,0.56
2023-02-25T18:09:59.177Z,0.68
2023-02-25T18:13:59.091Z,0.55
2023-02-25T18:17:59.093Z,0.51
2023-02-25T18:21:59.052Z,0.50
2023-02-25T18:25:58.984Z,0.51
2023-02-25T18:29:58.940Z,0.63
2023-02-25T18:33:58.925Z,0.52
2023-02-25T18:37:58.886Z,0.51
2023-02-25T18:41:58.916Z,0.55
2023-02-25T18:45:59.085Z,0.54
2023-02-25T18:49:59.214Z,0.56
2023-02-25T18:53:59.248Z,0.56
2023-02-25T18:57:59.294Z,0.56
2023-02-25T19:01:59.404Z,0.53
2023-02-25T19:05:59.506Z,0.55
2023-02-25T19:09:59.595Z,0.56
2023-02-25T19:13:59.715Z,0.53
2023-02-25T19:17:59.842Z,0.51
2023-02-25T19:21:59.947Z,0.61
2023-02-25T19:26:00.060Z,0.60
2023-02-25T19:30:00.186Z,0.63
2023-02-25T19:34:00.314Z,0.67
2023-02-25T19:38:00.481Z,0.54
2023-02-25T19:42:00.593Z,0.61
2023-02-25T19:46:00.782Z,0.57
2023-02-25T19:50:00.843Z,0.56
2023-02-25T19:54:00.968Z,0.56
2023-02-25T19:58:01.105Z,0.65
2023-02-25T20:02:01.189Z,0.58
2023-02-25T20:06:01.386Z,0.57
2023-02-25T20:10:01.498Z,0.53
2023-02-25T20:14:01.676Z,0.53
2023-02-25T20:18:01.825Z,0.55
2023-02-25T20:22:02.051Z,0.56
2023-02-25T20:26:02.188Z,0.51
2023-02-25T20:30:02.480Z,0.64
2023-02-25T20:34:04.699Z,0.60
2023-02-25T20:38:02.562Z,0.59
2023-02-25T20:42:02.507Z,0.51
2023-02-25T20:46:02.532Z,0.51
2023-02-25T20:50:02.452Z,0.56
2023-02-25T20:54:02.422Z,0.73
2023-02-25T20:58:02.377Z,0.73
2023-02-25T21:02:02.434Z,0.55
2023-02-25T21:06:02.332Z,0.59
2023-02-25T21:10:02.271Z,0.51
2023-02-25T21:14:02.209Z,0.64
2023-02-25T21:18:02.167Z,0.57
2023-02-25T21:22:02.173Z,0.73
2023-02-25T21:26:02.164Z,0.79
2023-02-25T21:30:02.352Z,0.87
2023-02-25T21:34:02.475Z,0.86
2023-02-25T21:38:02.656Z,0.87
2023-02-25T21:42:02.834Z,0.85
2023-02-25T21:46:03.091Z,0.77
2023-02-25T21:50:03.200Z,0.92
2023-02-25T21:54:03.379Z,0.81
2023-02-25T21:58:03.559Z,0.76
2023-02-25T22:02:03.800Z,0.64
2023-02-25T22:06:03.956Z,0.58
2023-02-25T22:10:04.171Z,0.63
2023-02-25T22:14:04.399Z,0.68
2023-02-25T22:18:04.592Z,0.69
2023-02-25T22:22:04.751Z,0.60
2023-02-25T22:26:04.977Z,0.63
2023-02-25T22:30:05.147Z,0.72
2023-02-25T22:34:05.384Z,0.75
2023-02-25T22:38:05.610Z,0.60
2023-02-25T22:42:05.568Z,0.53
2023-02-25T22:46:05.562Z,0.54
2023-02-25T22:50:05.449Z,0.51
2023-02-25T22:54:05.409Z,0.55
2023-02-25T22:58:05.419Z,0.52
2023-02-25T23:02:05.338Z,0.54
2023-02-25T23:06:05.304Z,0.50
2023-02-25T23:10:05.323Z,0.51
2023-02-25T23:14:05.257Z,0.51
2023-02-25T23:18:05.204Z,0.60
2023-02-25T23:22:05.325Z,0.53
2023-02-25T23:26:05.471Z,0.52
2023-02-25T23:30:05.660Z,0.52
2023-02-25T23:34:05.631Z,0.52
2023-02-25T23:38:05.577Z,0.63
2023-02-25T23:42:05.579Z,0.50
2023-02-25T23:46:05.554Z,0.62
2023-02-25T23:50:05.449Z,0.62
2023-02-25T23:54:05.472Z,0.64
2023-02-25T23:58:05.375Z,0.66
